sensor_id;sensor_type;location;lat;lon;timestamp;pressure;altitude;pressure_sealevel;temperature;humidity
59767;BME280;46248;58.364;25.582;2023-01-09T00:01:13;100671.97;;;-7.23;90.15
59767;BME280;46248;58.364;25.582;2023-01-09T00:04:37;100690.78;;;-7.15;90.09
59767;BME280;46248;58.364;25.582;2023-01-09T00:07:59;100672.06;;;-7.18;90.15
59767;BME280;46248;58.364;25.582;2023-01-09T00:11:21;100679.88;;;-7.10;89.83
59767;BME280;46248;58.364;25.582;2023-01-09T00:14:43;100669.66;;;-7.12;90.13
59767;BME280;46248;58.364;25.582;2023-01-09T00:18:05;100675.72;;;-7.07;90.27
59767;BME280;46248;58.364;25.582;2023-01-09T00:21:28;100668.09;;;-7.05;89.72
59767;BME280;46248;58.364;25.582;2023-01-09T00:24:50;100650.34;;;-7.04;90.20
59767;BME280;46248;58.364;25.582;2023-01-09T00:28:12;100643.47;;;-7.08;89.74
59767;BME280;46248;58.364;25.582;2023-01-09T00:31:34;100637.63;;;-7.02;90.13
59767;BME280;46248;58.364;25.582;2023-01-09T00:34:56;100641.88;;;-7.03;89.91
59767;BME280;46248;58.364;25.582;2023-01-09T00:38:19;100637.69;;;-6.99;89.94
59767;BME280;46248;58.364;25.582;2023-01-09T00:41:43;100621.56;;;-7.00;90.31
59767;BME280;46248;58.364;25.582;2023-01-09T00:45:08;100619.00;;;-7.01;90.57
59767;BME280;46248;58.364;25.582;2023-01-09T00:48:32;100623.31;;;-6.97;90.37
59767;BME280;46248;58.364;25.582;2023-01-09T00:51:55;100633.63;;;-6.93;90.40
59767;BME280;46248;58.364;25.582;2023-01-09T00:55:19;100621.69;;;-6.95;90.28
59767;BME280;46248;58.364;25.582;2023-01-09T00:58:41;100625.09;;;-6.95;89.91
59767;BME280;46248;58.364;25.582;2023-01-09T01:02:04;100617.47;;;-6.93;90.09
59767;BME280;46248;58.364;25.582;2023-01-09T01:05:26;100620.81;;;-6.96;89.99
59767;BME280;46248;58.364;25.582;2023-01-09T01:09:06;100620.97;;;-6.89;90.75
59767;BME280;46248;58.364;25.582;2023-01-09T01:12:29;100591.00;;;-7.01;90.68
59767;BME280;46248;58.364;25.582;2023-01-09T01:15:51;100610.00;;;-6.85;90.29
59767;BME280;46248;58.364;25.582;2023-01-09T01:19:13;100613.44;;;-6.83;89.89
59767;BME280;46248;58.364;25.582;2023-01-09T01:22:35;100586.91;;;-6.93;90.15
59767;BME280;46248;58.364;25.582;2023-01-09T01:26:03;100591.28;;;-6.87;90.04
59767;BME280;46248;58.364;25.582;2023-01-09T01:29:26;100578.50;;;-6.91;90.41
59767;BME280;46248;58.364;25.582;2023-01-09T01:32:48;100589.66;;;-6.84;90.29
59767;BME280;46248;58.364;25.582;2023-01-09T01:36:10;100590.56;;;-6.82;90.55
59767;BME280;46248;58.364;25.582;2023-01-09T01:39:34;100574.44;;;-6.81;90.28
59767;BME280;46248;58.364;25.582;2023-01-09T01:42:56;100561.69;;;-6.82;90.44
59767;BME280;46248;58.364;25.582;2023-01-09T01:46:20;100553.22;;;-6.81;90.04
59767;BME280;46248;58.364;25.582;2023-01-09T01:49:43;100554.13;;;-6.79;90.72
59767;BME280;46248;58.364;25.582;2023-01-09T01:53:10;100549.88;;;-6.79;90.50
59767;BME280;46248;58.364;25.582;2023-01-09T01:56:36;100548.22;;;-6.77;90.57
59767;BME280;46248;58.364;25.582;2023-01-09T02:00:01;100532.03;;;-6.80;90.58
59767;BME280;46248;58.364;25.582;2023-01-09T02:03:27;100527.75;;;-6.83;90.13
59767;BME280;46248;58.364;25.582;2023-01-09T02:06:51;100543.13;;;-6.77;90.18
59767;BME280;46248;58.364;25.582;2023-01-09T02:10:14;100541.47;;;-6.75;90.30
59767;BME280;46248;58.364;25.582;2023-01-09T02:13:36;100546.53;;;-6.75;90.25
59767;BME280;46248;58.364;25.582;2023-01-09T02:17:07;100535.50;;;-6.75;89.99
59767;BME280;46248;58.364;25.582;2023-01-09T02:20:49;100540.66;;;-6.72;90.73
59767;BME280;46248;58.364;25.582;2023-01-09T02:24:40;100533.91;;;-6.70;90.33
59767;BME280;46248;58.364;25.582;2023-01-09T02:28:27;100527.13;;;-6.70;90.44
59767;BME280;46248;58.364;25.582;2023-01-09T02:32:03;100523.78;;;-6.67;90.86
59767;BME280;46248;58.364;25.582;2023-01-09T02:35:43;100521.19;;;-6.70;90.16
59767;BME280;46248;58.364;25.582;2023-01-09T02:39:20;100523.78;;;-6.67;90.26
59767;BME280;46248;58.364;25.582;2023-01-09T02:42:44;100513.59;;;-6.69;90.55
59767;BME280;46248;58.364;25.582;2023-01-09T02:46:16;100507.66;;;-6.66;91.69
59767;BME280;46248;58.364;25.582;2023-01-09T02:49:42;100502.69;;;-6.60;90.74
59767;BME280;46248;58.364;25.582;2023-01-09T02:57:16;100494.19;;;-6.60;90.29
59767;BME280;46248;58.364;25.582;2023-01-09T03:00:51;100493.38;;;-6.59;90.73
59767;BME280;46248;58.364;25.582;2023-01-09T03:04:21;100487.34;;;-6.64;90.36
59767;BME280;46248;58.364;25.582;2023-01-09T03:07:55;100482.25;;;-6.63;90.32
59767;BME280;46248;58.364;25.582;2023-01-09T03:11:19;100472.97;;;-6.62;89.91
59767;BME280;46248;58.364;25.582;2023-01-09T03:14:45;100471.25;;;-6.62;90.25
59767;BME280;46248;58.364;25.582;2023-01-09T03:18:10;100480.66;;;-6.59;90.40
59767;BME280;46248;58.364;25.582;2023-01-09T03:21:34;100471.31;;;-6.59;90.65
59767;BME280;46248;58.364;25.582;2023-01-09T03:24:58;100482.34;;;-6.58;90.18
59767;BME280;46248;58.364;25.582;2023-01-09T03:28:25;100473.00;;;-6.59;90.68
59767;BME280;46248;58.364;25.582;2023-01-09T03:31:47;100473.88;;;-6.57;90.58
59767;BME280;46248;58.364;25.582;2023-01-09T03:35:09;100472.16;;;-6.58;90.08
59767;BME280;46248;58.364;25.582;2023-01-09T03:38:31;100467.03;;;-6.61;90.49
59767;BME280;46248;58.364;25.582;2023-01-09T03:41:55;100473.91;;;-6.56;90.18
59767;BME280;46248;58.364;25.582;2023-01-09T03:45:17;100477.31;;;-6.54;90.21
59767;BME280;46248;58.364;25.582;2023-01-09T03:48:39;100481.56;;;-6.54;90.81
59767;BME280;46248;58.364;25.582;2023-01-09T03:52:01;100471.38;;;-6.54;91.31
59767;BME280;46248;58.364;25.582;2023-01-09T03:55:23;100485.88;;;-6.52;91.87
59767;BME280;46248;58.364;25.582;2023-01-09T03:58:46;100474.81;;;-6.52;92.08
59767;BME280;46248;58.364;25.582;2023-01-09T04:02:09;100476.50;;;-6.53;92.32
59767;BME280;46248;58.364;25.582;2023-01-09T04:05:31;100479.03;;;-6.54;92.13
59767;BME280;46248;58.364;25.582;2023-01-09T04:08:54;100484.16;;;-6.53;92.71
59767;BME280;46248;58.364;25.582;2023-01-09T04:12:16;100468.88;;;-6.53;92.80
59767;BME280;46248;58.364;25.582;2023-01-09T04:15:39;100470.53;;;-6.55;93.00
59767;BME280;46248;58.364;25.582;2023-01-09T04:19:01;100462.88;;;-6.56;92.43
59767;BME280;46248;58.364;25.582;2023-01-09T04:22:23;100457.78;;;-6.55;92.62
59767;BME280;46248;58.364;25.582;2023-01-09T04:25:44;100450.19;;;-6.53;92.76
59767;BME280;46248;58.364;25.582;2023-01-09T04:29:07;100437.31;;;-6.61;92.58
59767;BME280;46248;58.364;25.582;2023-01-09T04:32:30;100442.50;;;-6.55;93.72
59767;BME280;46248;58.364;25.582;2023-01-09T04:35:52;100447.66;;;-6.52;92.97
59767;BME280;46248;58.364;25.582;2023-01-09T04:39:14;100440.81;;;-6.54;92.58
59767;BME280;46248;58.364;25.582;2023-01-09T04:42:36;100441.66;;;-6.54;92.48
59767;BME280;46248;58.364;25.582;2023-01-09T04:45:58;100447.59;;;-6.55;92.27
59767;BME280;46248;58.364;25.582;2023-01-09T04:49:22;100453.56;;;-6.54;92.16
59767;BME280;46248;58.364;25.582;2023-01-09T04:52:44;100448.44;;;-6.56;91.66
59767;BME280;46248;58.364;25.582;2023-01-09T04:56:06;100440.81;;;-6.54;92.26
59767;BME280;46248;58.364;25.582;2023-01-09T04:59:28;100440.81;;;-6.54;91.85
59767;BME280;46248;58.364;25.582;2023-01-09T05:02:50;100451.91;;;-6.51;91.63
59767;BME280;46248;58.364;25.582;2023-01-09T05:06:13;100441.66;;;-6.54;91.95
59767;BME280;46248;58.364;25.582;2023-01-09T05:09:35;100423.75;;;-6.60;92.51
59767;BME280;46248;58.364;25.582;2023-01-09T05:12:57;100412.75;;;-6.59;91.74
59767;BME280;46248;58.364;25.582;2023-01-09T05:16:19;100417.78;;;-6.62;92.37
59767;BME280;46248;58.364;25.582;2023-01-09T05:19:41;100445.19;;;-6.47;92.53
59767;BME280;46248;58.364;25.582;2023-01-09T05:23:06;100440.13;;;-6.46;92.34
59767;BME280;46248;58.364;25.582;2023-01-09T05:26:28;100438.41;;;-6.45;93.04
59767;BME280;46248;58.364;25.582;2023-01-09T05:29:50;100438.47;;;-6.43;92.72
59767;BME280;46248;58.364;25.582;2023-01-09T05:33:12;100439.31;;;-6.43;92.91
59767;BME280;46248;58.364;25.582;2023-01-09T05:36:34;100430.81;;;-6.42;92.66
59767;BME280;46248;58.364;25.582;2023-01-09T05:39:57;100452.94;;;-6.39;92.27
59767;BME280;46248;58.364;25.582;2023-01-09T05:43:19;100447.00;;;-6.38;92.87
59767;BME280;46248;58.364;25.582;2023-01-09T05:46:41;100435.97;;;-6.39;92.49
59767;BME280;46248;58.364;25.582;2023-01-09T05:50:04;100453.81;;;-6.39;92.32
59767;BME280;46248;58.364;25.582;2023-01-09T05:53:25;100444.41;;;-6.41;92.63
59767;BME280;46248;58.364;25.582;2023-01-09T05:56:48;100457.25;;;-6.37;92.74
59767;BME280;46248;58.364;25.582;2023-01-09T06:00:11;100446.25;;;-6.34;92.87
59767;BME280;46248;58.364;25.582;2023-01-09T06:03:33;100447.09;;;-6.34;92.74
59767;BME280;46248;58.364;25.582;2023-01-09T06:06:55;100431.84;;;-6.32;92.79
59767;BME280;46248;58.364;25.582;2023-01-09T06:10:17;100435.22;;;-6.33;92.81
59767;BME280;46248;58.364;25.582;2023-01-09T06:13:43;100412.03;;;-6.50;92.41
59767;BME280;46248;58.364;25.582;2023-01-09T06:17:05;100445.41;;;-6.33;92.93
59767;BME280;46248;58.364;25.582;2023-01-09T06:20:26;100454.78;;;-6.32;93.29
59767;BME280;46248;58.364;25.582;2023-01-09T06:23:48;100470.09;;;-6.31;92.75
59767;BME280;46248;58.364;25.582;2023-01-09T06:27:10;100470.13;;;-6.29;93.22
59767;BME280;46248;58.364;25.582;2023-01-09T06:30:33;100482.91;;;-6.26;93.70
59767;BME280;46248;58.364;25.582;2023-01-09T06:33:55;100490.56;;;-6.26;93.14
59767;BME280;46248;58.364;25.582;2023-01-09T06:37:17;100481.22;;;-6.26;93.37
59767;BME280;46248;58.364;25.582;2023-01-09T06:40:39;100486.28;;;-6.27;93.63
59767;BME280;46248;58.364;25.582;2023-01-09T06:44:01;100488.00;;;-6.26;92.96
59767;BME280;46248;58.364;25.582;2023-01-09T06:47:24;100491.41;;;-6.24;93.23
59767;BME280;46248;58.364;25.582;2023-01-09T06:50:46;100489.72;;;-6.25;93.47
59767;BME280;46248;58.364;25.582;2023-01-09T06:54:08;100480.38;;;-6.26;93.98
59767;BME280;46248;58.364;25.582;2023-01-09T06:57:30;100488.06;;;-6.23;93.75
59767;BME280;46248;58.364;25.582;2023-01-09T07:00:52;100486.31;;;-6.24;93.88
59767;BME280;46248;58.364;25.582;2023-01-09T07:04:16;100479.53;;;-6.25;93.89
59767;BME280;46248;58.364;25.582;2023-01-09T07:07:38;100476.09;;;-6.27;94.27
59767;BME280;46248;58.364;25.582;2023-01-09T07:11:00;100487.28;;;-6.19;94.13
59767;BME280;46248;58.364;25.582;2023-01-09T07:14:22;100474.53;;;-6.19;94.03
59767;BME280;46248;58.364;25.582;2023-01-09T07:17:43;100477.06;;;-6.19;93.55
59767;BME280;46248;58.364;25.582;2023-01-09T07:21:07;100469.38;;;-6.20;93.97
59767;BME280;46248;58.364;25.582;2023-01-09T07:24:29;100469.34;;;-6.25;94.49
59767;BME280;46248;58.364;25.582;2023-01-09T07:27:51;100465.94;;;-6.24;94.31
59767;BME280;46248;58.364;25.582;2023-01-09T07:31:12;100469.34;;;-6.24;93.80
59767;BME280;46248;58.364;25.582;2023-01-09T07:34:35;100475.38;;;-6.20;93.93
59767;BME280;46248;58.364;25.582;2023-01-09T07:37:58;100468.56;;;-6.19;93.92
59767;BME280;46248;58.364;25.582;2023-01-09T07:41:20;100461.63;;;-6.28;94.26
59767;BME280;46248;58.364;25.582;2023-01-09T07:44:41;100454.03;;;-6.25;94.35
59767;BME280;46248;58.364;25.582;2023-01-09T07:48:04;100445.53;;;-6.26;94.21
59767;BME280;46248;58.364;25.582;2023-01-09T07:51:26;100449.78;;;-6.26;94.77
59767;BME280;46248;58.364;25.582;2023-01-09T07:54:50;100454.84;;;-6.28;94.39
59767;BME280;46248;58.364;25.582;2023-01-09T07:58:12;100459.09;;;-6.28;94.33
59767;BME280;46248;58.364;25.582;2023-01-09T08:01:33;100471.84;;;-6.28;94.38
59767;BME280;46248;58.364;25.582;2023-01-09T08:04:55;100470.19;;;-6.26;94.66
59767;BME280;46248;58.364;25.582;2023-01-09T08:08:17;100460.78;;;-6.27;94.60
59767;BME280;46248;58.364;25.582;2023-01-09T08:11:40;100463.44;;;-6.23;94.73
59767;BME280;46248;58.364;25.582;2023-01-09T08:15:02;100470.28;;;-6.20;94.74
59767;BME280;46248;58.364;25.582;2023-01-09T08:18:24;100444.59;;;-6.32;94.76
59767;BME280;46248;58.364;25.582;2023-01-09T08:21:46;100464.34;;;-6.17;94.83
59767;BME280;46248;58.364;25.582;2023-01-09T08:25:08;100464.34;;;-6.17;94.66
59767;BME280;46248;58.364;25.582;2023-01-09T08:28:33;100461.78;;;-6.17;94.39
59767;BME280;46248;58.364;25.582;2023-01-09T08:31:54;100467.78;;;-6.15;94.44
59767;BME280;46248;58.364;25.582;2023-01-09T08:35:17;100464.38;;;-6.16;94.25
59767;BME280;46248;58.364;25.582;2023-01-09T08:38:39;100462.69;;;-6.17;94.98
59767;BME280;46248;58.364;25.582;2023-01-09T08:42:01;100455.78;;;-6.21;94.48
59767;BME280;46248;58.364;25.582;2023-01-09T08:45:41;100465.22;;;-6.15;95.24
59767;BME280;46248;58.364;25.582;2023-01-09T08:49:21;100471.19;;;-6.15;95.34
59767;BME280;46248;58.364;25.582;2023-01-09T08:52:42;100480.56;;;-6.14;94.96
59767;BME280;46248;58.364;25.582;2023-01-09T08:56:04;100481.47;;;-6.10;95.43
59767;BME280;46248;58.364;25.582;2023-01-09T08:59:27;100484.81;;;-6.13;95.14
59767;BME280;46248;58.364;25.582;2023-01-09T09:02:51;100490.81;;;-6.09;95.97
59767;BME280;46248;58.364;25.582;2023-01-09T09:06:13;100483.22;;;-6.06;95.19
59767;BME280;46248;58.364;25.582;2023-01-09T09:09:35;100497.66;;;-6.07;94.96
59767;BME280;46248;58.364;25.582;2023-01-09T09:12:58;100493.41;;;-6.08;95.35
59767;BME280;46248;58.364;25.582;2023-01-09T09:16:20;100489.22;;;-6.03;95.44
59767;BME280;46248;58.364;25.582;2023-01-09T09:19:43;100489.25;;;-6.01;95.22
59767;BME280;46248;58.364;25.582;2023-01-09T09:23:06;100487.56;;;-5.99;94.82
59767;BME280;46248;58.364;25.582;2023-01-09T09:26:28;100472.03;;;-6.14;94.62
59767;BME280;46248;58.364;25.582;2023-01-09T09:29:50;100495.22;;;-5.99;95.57
59767;BME280;46248;58.364;25.582;2023-01-09T09:33:12;100485.00;;;-5.99;95.14
59767;BME280;46248;58.364;25.582;2023-01-09T09:36:35;100486.75;;;-5.98;95.28
59767;BME280;46248;58.364;25.582;2023-01-09T09:39:57;100472.25;;;-6.01;95.08
59767;BME280;46248;58.364;25.582;2023-01-09T09:43:51;100470.59;;;-5.97;95.31
59767;BME280;46248;58.364;25.582;2023-01-09T09:47:43;100474.88;;;-5.96;94.75
59767;BME280;46248;58.364;25.582;2023-01-09T09:51:21;100471.50;;;-5.95;94.32
59767;BME280;46248;58.364;25.582;2023-01-09T09:54:48;100480.91;;;-5.89;94.39
59767;BME280;46248;58.364;25.582;2023-01-09T09:58:16;100474.06;;;-5.90;94.33
59767;BME280;46248;58.364;25.582;2023-01-09T10:01:43;100480.94;;;-5.85;94.29
59767;BME280;46248;58.364;25.582;2023-01-09T10:05:13;100468.19;;;-5.85;93.78
59767;BME280;46248;58.364;25.582;2023-01-09T10:08:43;100463.91;;;-5.87;93.56
59767;BME280;46248;58.364;25.582;2023-01-09T10:12:19;100463.94;;;-5.86;93.17
59767;BME280;46248;58.364;25.582;2023-01-09T10:15:51;100457.16;;;-5.85;93.33
59767;BME280;46248;58.364;25.582;2023-01-09T10:19:27;100452.91;;;-5.85;93.58
59767;BME280;46248;58.364;25.582;2023-01-09T10:23:02;100459.75;;;-5.84;93.11
59767;BME280;46248;58.364;25.582;2023-01-09T10:26:29;100458.00;;;-5.85;93.50
59767;BME280;46248;58.364;25.582;2023-01-09T10:30:06;100449.50;;;-5.85;93.05
59767;BME280;46248;58.364;25.582;2023-01-09T10:33:44;100447.81;;;-5.85;93.49
59767;BME280;46248;58.364;25.582;2023-01-09T10:37:13;100456.34;;;-5.83;93.84
59767;BME280;46248;58.364;25.582;2023-01-09T10:40:40;100432.47;;;-5.89;93.54
59767;BME280;46248;58.364;25.582;2023-01-09T10:44:09;100453.84;;;-5.80;93.44
59767;BME280;46248;58.364;25.582;2023-01-09T10:47:38;100442.81;;;-5.77;93.31
59767;BME280;46248;58.364;25.582;2023-01-09T10:51:08;100445.34;;;-5.80;93.95
59767;BME280;46248;58.364;25.582;2023-01-09T10:54:34;100441.91;;;-5.82;93.46
59767;BME280;46248;58.364;25.582;2023-01-09T10:58:01;100439.34;;;-5.84;93.71
59767;BME280;46248;58.364;25.582;2023-01-09T11:01:31;100429.97;;;-5.85;93.17
59767;BME280;46248;58.364;25.582;2023-01-09T11:04:55;100430.84;;;-5.81;93.51
59767;BME280;46248;58.364;25.582;2023-01-09T11:08:22;100424.13;;;-5.78;93.52
59767;BME280;46248;58.364;25.582;2023-01-09T11:11:46;100419.03;;;-5.76;93.53
59767;BME280;46248;58.364;25.582;2023-01-09T11:15:26;100413.13;;;-5.73;93.72
59767;BME280;46248;58.364;25.582;2023-01-09T11:18:52;100413.94;;;-5.76;93.62
59767;BME280;46248;58.364;25.582;2023-01-09T11:22:18;100405.44;;;-5.75;93.90
59767;BME280;46248;58.364;25.582;2023-01-09T11:25:50;100416.53;;;-5.73;93.95
59767;BME280;46248;58.364;25.582;2023-01-09T11:29:14;100413.13;;;-5.72;93.91
59767;BME280;46248;58.364;25.582;2023-01-09T11:32:36;100413.19;;;-5.67;94.99
59767;BME280;46248;58.364;25.582;2023-01-09T11:36:02;100407.28;;;-5.65;93.97
59767;BME280;46248;58.364;25.582;2023-01-09T11:39:28;100412.34;;;-5.66;93.53
59767;BME280;46248;58.364;25.582;2023-01-09T11:43:02;100409.72;;;-5.72;93.33
59767;BME280;46248;58.364;25.582;2023-01-09T11:46:34;100407.19;;;-5.71;93.56
59767;BME280;46248;58.364;25.582;2023-01-09T11:50:07;100405.50;;;-5.69;93.24
59767;BME280;46248;58.364;25.582;2023-01-09T11:57:32;100394.44;;;-5.71;93.10
59767;BME280;46248;58.364;25.582;2023-01-09T12:00:59;100405.50;;;-5.69;93.47
59767;BME280;46248;58.364;25.582;2023-01-09T12:04:29;100401.22;;;-5.73;93.52
59767;BME280;46248;58.364;25.582;2023-01-09T12:08:10;100402.09;;;-5.69;93.43
59767;BME280;46248;58.364;25.582;2023-01-09T12:11:37;100398.66;;;-5.73;93.37
59767;BME280;46248;58.364;25.582;2023-01-09T12:15:15;100398.66;;;-5.73;93.61
59767;BME280;46248;58.364;25.582;2023-01-09T12:18:53;100393.69;;;-5.64;93.53
59767;BME280;46248;58.364;25.582;2023-01-09T12:22:25;100398.00;;;-5.58;94.27
59767;BME280;46248;58.364;25.582;2023-01-09T12:25:54;100391.19;;;-5.58;92.94
59767;BME280;46248;58.364;25.582;2023-01-09T12:29:43;100397.13;;;-5.60;92.25
59767;BME280;46248;58.364;25.582;2023-01-09T12:33:22;100393.69;;;-5.64;92.77
59767;BME280;46248;58.364;25.582;2023-01-09T12:36:54;100392.78;;;-5.67;92.52
59767;BME280;46248;58.364;25.582;2023-01-09T12:40:33;100390.25;;;-5.66;92.09
59767;BME280;46248;58.364;25.582;2023-01-09T12:44:13;100397.00;;;-5.69;92.92
59767;BME280;46248;58.364;25.582;2023-01-09T12:48:00;100386.00;;;-5.68;93.29
59767;BME280;46248;58.364;25.582;2023-01-09T12:51:32;100386.00;;;-5.68;92.45
59767;BME280;46248;58.364;25.582;2023-01-09T12:54:57;100391.09;;;-5.68;92.53
59767;BME280;46248;58.364;25.582;2023-01-09T12:58:32;100392.75;;;-5.69;93.30
59767;BME280;46248;58.364;25.582;2023-01-09T13:02:03;100380.88;;;-5.68;92.67
59767;BME280;46248;58.364;25.582;2023-01-09T13:05:32;100382.59;;;-5.67;93.42
59767;BME280;46248;58.364;25.582;2023-01-09T13:09:05;100368.91;;;-5.72;93.13
59767;BME280;46248;58.364;25.582;2023-01-09T13:12:35;100373.22;;;-5.68;93.04
59767;BME280;46248;58.364;25.582;2023-01-09T13:16:03;100360.28;;;-5.84;92.57
59767;BME280;46248;58.364;25.582;2023-01-09T13:19:28;100393.69;;;-5.65;92.79
59767;BME280;46248;58.364;25.582;2023-01-09T13:22:52;100387.69;;;-5.66;93.32
59767;BME280;46248;58.364;25.582;2023-01-09T13:26:20;100385.19;;;-5.63;92.77
59767;BME280;46248;58.364;25.582;2023-01-09T13:29:46;100386.03;;;-5.64;91.84
59767;BME280;46248;58.364;25.582;2023-01-09T13:33:15;100377.50;;;-5.66;92.01
59767;BME280;46248;58.364;25.582;2023-01-09T13:36:45;100384.28;;;-5.66;91.69
59767;BME280;46248;58.364;25.582;2023-01-09T13:40:25;100381.75;;;-5.66;91.87
59767;BME280;46248;58.364;25.582;2023-01-09T13:43:55;100382.50;;;-5.72;91.54
59767;BME280;46248;58.364;25.582;2023-01-09T13:47:19;100370.66;;;-5.70;91.31
59767;BME280;46248;58.364;25.582;2023-01-09T13:50:42;100365.53;;;-5.71;91.32
59767;BME280;46248;58.364;25.582;2023-01-09T13:54:07;100368.09;;;-5.70;91.76
59767;BME280;46248;58.364;25.582;2023-01-09T13:57:31;100360.44;;;-5.71;91.84
59767;BME280;46248;58.364;25.582;2023-01-09T14:01:00;100373.22;;;-5.67;91.15
59767;BME280;46248;58.364;25.582;2023-01-09T14:04:39;100370.72;;;-5.65;91.39
59767;BME280;46248;58.364;25.582;2023-01-09T14:08:03;100378.41;;;-5.62;91.34
59767;BME280;46248;58.364;25.582;2023-01-09T14:11:26;100375.03;;;-5.60;91.02
59767;BME280;46248;58.364;25.582;2023-01-09T14:14:50;100372.50;;;-5.60;90.70
59767;BME280;46248;58.364;25.582;2023-01-09T14:18:17;100371.66;;;-5.57;91.51
59767;BME280;46248;58.364;25.582;2023-01-09T14:21:49;100370.78;;;-5.59;90.64
59767;BME280;46248;58.364;25.582;2023-01-09T14:25:19;100371.66;;;-5.57;90.51
59767;BME280;46248;58.364;25.582;2023-01-09T14:28:44;100368.28;;;-5.56;90.66
59767;BME280;46248;58.364;25.582;2023-01-09T14:32:36;100369.09;;;-5.59;91.21
59767;BME280;46248;58.364;25.582;2023-01-09T14:36:17;100373.38;;;-5.55;91.49
59767;BME280;46248;58.364;25.582;2023-01-09T14:39:43;100373.44;;;-5.50;90.84
59767;BME280;46248;58.364;25.582;2023-01-09T14:43:25;100365.72;;;-5.55;90.78
59767;BME280;46248;58.364;25.582;2023-01-09T14:46:50;100377.69;;;-5.49;90.94
59767;BME280;46248;58.364;25.582;2023-01-09T14:50:17;100385.41;;;-5.46;91.11
59767;BME280;46248;58.364;25.582;2023-01-09T14:53:43;100393.94;;;-5.42;90.58
59767;BME280;46248;58.364;25.582;2023-01-09T14:57:24;100389.75;;;-5.37;90.84
59767;BME280;46248;58.364;25.582;2023-01-09T15:00:57;100391.44;;;-5.36;91.42
59767;BME280;46248;58.364;25.582;2023-01-09T15:04:29;100394.84;;;-5.36;90.04
59767;BME280;46248;58.364;25.582;2023-01-09T15:07:56;100385.53;;;-5.35;90.41
59767;BME280;46248;58.364;25.582;2023-01-09T15:11:21;100394.88;;;-5.33;89.93
59767;BME280;46248;58.364;25.582;2023-01-09T15:14:43;100404.28;;;-5.32;90.29
59767;BME280;46248;58.364;25.582;2023-01-09T15:18:07;100400.88;;;-5.32;89.56
59767;BME280;46248;58.364;25.582;2023-01-09T15:21:31;100398.28;;;-5.34;89.51
59767;BME280;46248;58.364;25.582;2023-01-09T15:24:53;100387.16;;;-5.40;90.03
59767;BME280;46248;58.364;25.582;2023-01-09T15:28:26;100407.72;;;-5.28;88.98
59767;BME280;46248;58.364;25.582;2023-01-09T15:31:51;100404.31;;;-5.28;88.74
59767;BME280;46248;58.364;25.582;2023-01-09T15:35:14;100411.97;;;-5.28;88.98
59767;BME280;46248;58.364;25.582;2023-01-09T15:38:37;100406.84;;;-5.32;88.89
59767;BME280;46248;58.364;25.582;2023-01-09T15:41:59;100415.34;;;-5.30;88.79
59767;BME280;46248;58.364;25.582;2023-01-09T15:45:42;100405.94;;;-5.34;88.53
59767;BME280;46248;58.364;25.582;2023-01-09T15:49:08;100416.22;;;-5.29;88.84
59767;BME280;46248;58.364;25.582;2023-01-09T15:52:32;100420.44;;;-5.30;87.59
59767;BME280;46248;58.364;25.582;2023-01-09T15:56:06;100421.34;;;-5.26;88.53
59767;BME280;46248;58.364;25.582;2023-01-09T15:59:35;100422.22;;;-5.25;88.11
59767;BME280;46248;58.364;25.582;2023-01-09T16:03:00;100418.81;;;-5.26;87.92
59767;BME280;46248;58.364;25.582;2023-01-09T16:06:34;100411.13;;;-5.29;87.01
59767;BME280;46248;58.364;25.582;2023-01-09T16:09:56;100411.13;;;-5.29;87.85
59767;BME280;46248;58.364;25.582;2023-01-09T16:13:20;100407.69;;;-5.31;88.05
59767;BME280;46248;58.364;25.582;2023-01-09T16:16:45;100406.78;;;-5.33;87.70
59767;BME280;46248;58.364;25.582;2023-01-09T16:20:14;100397.44;;;-5.34;87.73
59767;BME280;46248;58.364;25.582;2023-01-09T16:23:36;100405.97;;;-5.31;88.12
59767;BME280;46248;58.364;25.582;2023-01-09T16:27:20;100408.53;;;-5.31;87.64
59767;BME280;46248;58.364;25.582;2023-01-09T16:30:53;100405.09;;;-5.33;87.84
59767;BME280;46248;58.364;25.582;2023-01-09T16:34:23;100403.41;;;-5.34;87.81
59767;BME280;46248;58.364;25.582;2023-01-09T16:37:47;100405.09;;;-5.33;88.18
59767;BME280;46248;58.364;25.582;2023-01-09T16:41:14;100405.09;;;-5.33;87.99
59767;BME280;46248;58.364;25.582;2023-01-09T16:44:53;100402.50;;;-5.36;88.00
59767;BME280;46248;58.364;25.582;2023-01-09T16:48:18;100396.56;;;-5.36;88.45
59767;BME280;46248;58.364;25.582;2023-01-09T16:51:41;100395.75;;;-5.35;88.88
59767;BME280;46248;58.364;25.582;2023-01-09T16:55:04;100399.09;;;-5.38;88.78
59767;BME280;46248;58.364;25.582;2023-01-09T16:58:28;100395.66;;;-5.41;89.04
59767;BME280;46248;58.364;25.582;2023-01-09T17:01:51;100397.38;;;-5.39;88.52
59767;BME280;46248;58.364;25.582;2023-01-09T17:05:13;100382.84;;;-5.46;89.18
59767;BME280;46248;58.364;25.582;2023-01-09T17:08:35;100392.25;;;-5.40;88.30
59767;BME280;46248;58.364;25.582;2023-01-09T17:11:59;100402.47;;;-5.39;88.11
59767;BME280;46248;58.364;25.582;2023-01-09T17:15:21;100396.47;;;-5.42;88.52
59767;BME280;46248;58.364;25.582;2023-01-09T17:18:43;100389.66;;;-5.45;88.73
59767;BME280;46248;58.364;25.582;2023-01-09T17:22:05;100406.66;;;-5.45;88.58
59767;BME280;46248;58.364;25.582;2023-01-09T17:25:27;100402.41;;;-5.45;89.15
59767;BME280;46248;58.364;25.582;2023-01-09T17:29:08;100414.34;;;-5.44;88.64
59767;BME280;46248;58.364;25.582;2023-01-09T17:32:30;100415.19;;;-5.43;89.54
59767;BME280;46248;58.364;25.582;2023-01-09T17:35:52;100387.91;;;-5.50;89.16
59767;BME280;46248;58.364;25.582;2023-01-09T17:39:16;100396.44;;;-5.47;88.84
59767;BME280;46248;58.364;25.582;2023-01-09T17:42:38;100399.81;;;-5.49;88.94
59767;BME280;46248;58.364;25.582;2023-01-09T17:46:01;100386.13;;;-5.55;88.92
59767;BME280;46248;58.364;25.582;2023-01-09T17:49:24;100392.13;;;-5.53;88.98
59767;BME280;46248;58.364;25.582;2023-01-09T17:52:46;100374.22;;;-5.56;88.57